CDC weather

Cedar City Regional Airport
Cedar City, Utah, United States

Public forecast

Using degrees Fahrenheit for public forecast. Weather courtesy of forecast.io.

METAR (pilot weather report)

Retrieved 2019/07/19 12:53 UTC (45 minutes ago):

KCDC 191253Z AUTO 24003KT 10SM CLR 18/M01 A3008 RMK AO2 SLP099 T01781006

TAF (pilot weather forecast)

Retrieved 2019/07/19 12:21 UTC (1 hour ago):

TAF KCDC 191120Z 1912/2012 18010KT P6SM SKC FM191800 21015G25KT P6SM SKC FM200300 18008KT P6SM FEW150